createdAt,value
2022-08-11T00:03:43.097Z,1.05
2022-08-11T00:08:34.706Z,1.13
2022-08-11T00:13:41.080Z,1.05
2022-08-11T00:18:47.786Z,0.95
2022-08-11T00:23:54.266Z,1.07
2022-08-11T00:29:01.779Z,1.03
2022-08-11T00:34:08.167Z,1.06
2022-08-11T00:39:15.820Z,0.95
2022-08-11T00:44:22.279Z,0.96
2022-08-11T00:49:29.780Z,0.84
2022-08-11T00:54:36.136Z,1.05
2022-08-11T00:59:43.553Z,1.04
2022-08-11T01:04:53.818Z,1.02
2022-08-11T01:09:56.454Z,0.84
2022-08-11T01:15:02.857Z,0.88
2022-08-11T01:20:47.388Z,0.90
2022-08-11T01:25:15.616Z,1.06
2022-08-11T01:30:22.375Z,1.15
2022-08-11T01:35:28.817Z,1.09
2022-08-11T01:40:35.592Z,1.06
2022-08-11T01:45:41.987Z,0.86
2022-08-11T01:50:48.680Z,1.07
2022-08-11T01:55:55.180Z,1.10
2022-08-11T02:01:01.937Z,0.94
2022-08-11T02:06:08.239Z,1.04
2022-08-11T02:11:16.853Z,1.13
2022-08-11T02:16:23.280Z,0.98
2022-08-11T02:21:30.692Z,1.09
2022-08-11T02:26:37.194Z,1.05
2022-08-11T02:32:23.930Z,1.13
2022-08-11T02:36:49.814Z,0.85
2022-08-11T02:41:56.637Z,1.18
2022-08-11T02:47:03.137Z,0.92
2022-08-11T02:52:09.928Z,0.98
2022-08-11T02:57:16.415Z,0.85
2022-08-11T03:02:23.331Z,1.01
2022-08-11T03:07:29.930Z,0.85
2022-08-11T03:12:37.026Z,0.85
2022-08-11T03:17:43.238Z,0.93
2022-08-11T03:22:50.001Z,1.07
2022-08-11T03:27:56.616Z,0.94
2022-08-11T03:33:03.704Z,1.05
2022-08-11T03:38:10.197Z,1.02
2022-08-11T03:43:17.802Z,0.86
2022-08-11T03:48:24.198Z,0.96
2022-08-11T03:53:31.321Z,1.00
2022-08-11T03:58:41.856Z,1.01
2022-08-11T04:03:44.899Z,0.84
2022-08-11T04:08:51.372Z,0.92
2022-08-11T04:13:59.091Z,0.96
2022-08-11T04:19:06.203Z,0.92
2022-08-11T04:24:37.830Z,1.03
2022-08-11T04:29:19.081Z,0.80
2022-08-11T04:34:26.365Z,0.93
2022-08-11T04:39:32.830Z,0.85
2022-08-11T04:44:40.283Z,0.99
2022-08-11T04:49:47.931Z,1.03
2022-08-11T04:54:55.424Z,1.00
2022-08-11T05:00:01.918Z,0.87
2022-08-11T05:05:09.527Z,1.06
2022-08-11T05:10:15.997Z,1.14
2022-08-11T05:15:23.427Z,1.03
2022-08-11T05:20:29.843Z,1.07
2022-08-11T05:26:42.953Z,1.09
2022-08-11T05:30:42.576Z,1.00
2022-08-11T05:36:00.289Z,1.05
2022-08-11T05:40:59.935Z,1.20
2022-08-11T05:46:06.173Z,1.19
2022-08-11T05:51:10.467Z,1.06
2022-08-11T05:56:16.860Z,0.96
2022-08-11T06:01:23.376Z,0.91
2022-08-11T06:06:30.980Z,1.36
2022-08-11T06:11:43.528Z,1.17
2022-08-11T06:16:44.591Z,1.14
2022-08-11T06:21:51.042Z,1.06
2022-08-11T06:27:13.395Z,1.32
2022-08-11T06:32:04.034Z,1.02
2022-08-11T06:37:10.928Z,1.17
2022-08-11T06:42:17.422Z,1.16
2022-08-11T06:47:24.217Z,1.25
2022-08-11T06:52:34.804Z,0.99
2022-08-11T06:57:37.129Z,0.97
2022-08-11T07:02:43.593Z,1.14
2022-08-11T07:07:50.578Z,1.11
2022-08-11T07:12:57.114Z,1.01
2022-08-11T07:18:03.921Z,1.08
2022-08-11T07:23:10.388Z,0.91
2022-08-11T07:28:17.153Z,1.09
2022-08-11T07:34:08.053Z,1.33
2022-08-11T07:38:29.931Z,1.04
2022-08-11T07:43:35.908Z,1.32
2022-08-11T07:48:42.695Z,1.36
2022-08-11T07:53:58.804Z,1.25
2022-08-11T07:58:59.213Z,1.23
2022-08-11T08:04:05.420Z,1.18
2022-08-11T08:09:12.060Z,1.23
2022-08-11T08:14:18.527Z,1.45
2022-08-11T08:19:25.917Z,1.17
2022-08-11T08:24:32.434Z,1.36
2022-08-11T08:29:39.230Z,1.52
2022-08-11T08:34:45.740Z,1.41
2022-08-11T08:39:53.382Z,1.62
2022-08-11T08:44:59.763Z,1.48
2022-08-11T08:50:07.322Z,1.60
2022-08-11T08:55:13.818Z,1.51
2022-08-11T09:00:22.964Z,1.40
2022-08-11T09:05:26.769Z,1.54
2022-08-11T09:10:33.647Z,1.72
2022-08-11T09:15:40.138Z,2.05
2022-08-11T09:20:47.743Z,1.89
2022-08-11T09:25:54.177Z,2.46
2022-08-11T09:31:01.195Z,1.97
2022-08-11T09:36:07.802Z,2.12
2022-08-11T09:41:14.887Z,2.08
2022-08-11T09:46:21.493Z,1.67
2022-08-11T09:51:28.498Z,2.16
2022-08-11T09:56:34.918Z,1.89
2022-08-11T10:01:41.736Z,2.19
2022-08-11T10:06:48.093Z,2.14
2022-08-11T10:11:58.037Z,2.06
2022-08-11T10:17:00.298Z,2.01
2022-08-11T10:22:07.308Z,1.89
2022-08-11T10:27:13.796Z,1.82
2022-08-11T10:32:20.598Z,1.81
2022-08-11T10:38:21.620Z,2.30
2022-08-11T10:44:02.939Z,1.91
2022-08-11T10:48:34.799Z,1.64
2022-08-11T10:53:41.697Z,1.77
2022-08-11T10:58:48.182Z,1.70
2022-08-11T11:03:54.985Z,1.93
2022-08-11T11:09:04.089Z,2.08
2022-08-11T11:14:07.831Z,1.62
2022-08-11T11:19:14.350Z,1.52
2022-08-11T11:24:22.619Z,1.27
2022-08-11T11:29:29.063Z,1.59
2022-08-11T11:34:37.196Z,1.30
2022-08-11T11:39:43.203Z,1.65
2022-08-11T11:44:51.370Z,1.54
2022-08-11T11:49:55.905Z,1.38
2022-08-11T11:55:02.645Z,1.52
2022-08-11T12:00:09.148Z,1.50
2022-08-11T12:05:15.921Z,1.35
2022-08-11T12:10:22.407Z,1.42
2022-08-11T12:16:04.397Z,1.34
2022-08-11T12:20:35.359Z,1.38
2022-08-11T12:25:42.783Z,1.27
2022-08-11T12:30:52.060Z,1.31
2022-08-11T12:36:01.144Z,1.34
2022-08-11T12:41:16.193Z,1.72
2022-08-11T12:46:08.858Z,1.29
2022-08-11T12:51:15.336Z,1.35
2022-08-11T12:56:22.230Z,1.05
2022-08-11T13:01:28.683Z,1.64
2022-08-11T13:06:35.515Z,0.98
2022-08-11T13:11:56.698Z,1.06
2022-08-11T13:16:48.407Z,1.41
2022-08-11T13:21:55.393Z,1.27
2022-08-11T13:27:03.436Z,1.34
2022-08-11T13:32:10.214Z,1.26
2022-08-11T13:37:17.031Z,1.26
2022-08-11T13:42:23.499Z,1.41
2022-08-11T13:47:31.018Z,1.63
2022-08-11T13:52:37.949Z,1.21
2022-08-11T13:58:07.494Z,1.20
2022-08-11T14:02:51.430Z,1.28
2022-08-11T14:07:58.294Z,0.95
2022-08-11T14:13:04.724Z,1.10
2022-08-11T14:18:12.216Z,1.07
2022-08-11T14:23:18.544Z,0.86
2022-08-11T14:28:30.943Z,1.36
2022-08-11T14:33:57.939Z,1.32
2022-08-11T14:38:38.445Z,1.34
2022-08-11T14:44:13.679Z,1.08
2022-08-11T14:48:51.254Z,1.25
2022-08-11T14:53:58.419Z,1.25
2022-08-11T14:59:04.303Z,1.23
2022-08-11T15:04:34.455Z,1.17
2022-08-11T15:09:17.127Z,1.33
2022-08-11T15:14:23.653Z,1.42
2022-08-11T15:19:40.366Z,1.15
2022-08-11T15:24:36.906Z,1.34
2022-08-11T15:29:44.163Z,0.98
2022-08-11T15:34:50.664Z,1.32
2022-08-11T15:39:57.841Z,1.29
2022-08-11T15:45:04.691Z,1.22
2022-08-11T15:50:13.634Z,1.30
2022-08-11T15:55:16.824Z,1.16
2022-08-11T16:00:24.404Z,1.36
2022-08-11T16:05:45.462Z,1.06
2022-08-11T16:10:35.849Z,1.38
2022-08-11T16:15:42.647Z,1.37
2022-08-11T16:20:50.063Z,1.12
2022-08-11T16:27:04.809Z,1.11
2022-08-11T16:31:03.435Z,1.27
2022-08-11T16:36:10.034Z,1.40
2022-08-11T16:41:17.027Z,1.34
2022-08-11T16:46:23.447Z,1.34
2022-08-11T16:51:31.027Z,1.27
2022-08-11T16:56:37.456Z,1.60
2022-08-11T17:01:45.012Z,1.36
2022-08-11T17:06:51.529Z,1.73
2022-08-11T17:11:58.315Z,1.33
2022-08-11T17:17:04.808Z,1.35
2022-08-11T17:22:11.699Z,1.72
2022-08-11T17:27:18.185Z,1.27
2022-08-11T17:32:25.727Z,1.44
2022-08-11T17:37:31.678Z,1.25
2022-08-11T17:42:38.476Z,1.50
2022-08-11T17:47:44.914Z,1.66
2022-08-11T17:52:51.618Z,1.35
2022-08-11T17:57:58.041Z,1.39
2022-08-11T18:03:04.899Z,1.20
2022-08-11T18:08:11.305Z,1.41
2022-08-11T18:13:18.870Z,1.67
2022-08-11T18:18:24.816Z,1.55
2022-08-11T18:23:40.726Z,1.47
2022-08-11T18:28:38.346Z,1.47
2022-08-11T18:34:05.861Z,1.61
2022-08-11T18:38:51.493Z,1.65
2022-08-11T18:43:58.282Z,1.66
2022-08-11T18:49:04.879Z,1.54
2022-08-11T18:54:11.735Z,1.63
2022-08-11T18:59:18.269Z,1.48
2022-08-11T19:04:25.059Z,1.69
2022-08-11T19:09:31.024Z,1.71
2022-08-11T19:14:37.954Z,1.70
2022-08-11T19:19:47.537Z,1.47
2022-08-11T19:24:50.679Z,1.58
2022-08-11T19:30:07.703Z,1.54
2022-08-11T19:35:04.632Z,1.39
2022-08-11T19:40:11.209Z,1.60
2022-08-11T19:45:18.093Z,1.65
2022-08-11T19:50:24.675Z,1.59
2022-08-11T19:55:32.132Z,1.47
2022-08-11T20:00:38.621Z,1.71
2022-08-11T20:05:55.256Z,1.86
2022-08-11T20:10:51.375Z,1.51
2022-08-11T20:15:58.258Z,1.37
2022-08-11T20:21:04.741Z,1.44
2022-08-11T20:26:29.479Z,1.53
2022-08-11T20:31:17.020Z,1.76
2022-08-11T20:36:24.382Z,1.61
2022-08-11T20:41:30.818Z,1.59
2022-08-11T20:46:37.703Z,1.52
2022-08-11T20:51:44.193Z,1.44
2022-08-11T20:56:50.868Z,1.38
2022-08-11T21:01:57.407Z,1.53
2022-08-11T21:07:04.181Z,1.20
2022-08-11T21:12:10.768Z,1.65
2022-08-11T21:17:27.411Z,1.43
2022-08-11T21:22:28.137Z,1.40
2022-08-11T21:27:29.818Z,1.44
2022-08-11T21:32:36.308Z,1.61
2022-08-11T21:37:44.441Z,1.48
2022-08-11T21:42:50.446Z,1.79
2022-08-11T21:48:01.114Z,1.35
2022-08-11T21:53:04.011Z,1.22
2022-08-11T21:58:11.520Z,1.52
2022-08-11T22:03:18.223Z,1.57
2022-08-11T22:08:25.122Z,1.37
2022-08-11T22:13:31.606Z,1.32
2022-08-11T22:18:38.359Z,1.68
2022-08-11T22:23:44.895Z,1.33
2022-08-11T22:28:51.225Z,1.29
2022-08-11T22:34:02.924Z,1.16
2022-08-11T22:39:04.149Z,1.16
2022-08-11T22:44:10.570Z,1.26
2022-08-11T22:49:17.337Z,1.18
2022-08-11T22:54:23.823Z,1.17
2022-08-11T22:59:30.744Z,1.04
2022-08-11T23:04:37.305Z,1.11
2022-08-11T23:09:44.102Z,1.34
2022-08-11T23:14:50.593Z,1.13
2022-08-11T23:20:00.273Z,1.23
2022-08-11T23:25:03.479Z,1.28
2022-08-11T23:30:11.001Z,1.37
2022-08-11T23:35:39.279Z,1.23
2022-08-11T23:40:25.705Z,1.11
2022-08-11T23:45:32.200Z,1.29
2022-08-11T23:50:39.458Z,1.26
2022-08-11T23:55:45.885Z,1.11
